sensor_id;sensor_type;location;lat;lon;timestamp;P1;P2;P0
54021;PMS7003;39936;51.058;17.220;2023-03-05T00:01:16;9;7;3
54021;PMS7003;39936;51.058;17.220;2023-03-05T00:05:07;6;6;4
54021;PMS7003;39936;51.058;17.220;2023-03-05T00:08:59;7;5;3
54021;PMS7003;39936;51.058;17.220;2023-03-05T00:12:39;8;6;4
54021;PMS7003;39936;51.058;17.220;2023-03-05T00:16:14;7;4;2
54021;PMS7003;39936;51.058;17.220;2023-03-05T00:19:27;8;7;5
54021;PMS7003;39936;51.058;17.220;2023-03-05T00:23:14;12;8;4
54021;PMS7003;39936;51.058;17.220;2023-03-05T00:26:35;8;6;4
54021;PMS7003;39936;51.058;17.220;2023-03-05T00:30:13;7;6;3
54021;PMS7003;39936;51.058;17.220;2023-03-05T00:34:01;6;5;3
54021;PMS7003;39936;51.058;17.220;2023-03-05T00:38:06;8;5;3
54021;PMS7003;39936;51.058;17.220;2023-03-05T00:41:22;7;7;5
54021;PMS7003;39936;51.058;17.220;2023-03-05T00:45:01;7;6;3
54021;PMS7003;39936;51.058;17.220;2023-03-05T00:48:21;6;4;3
54021;PMS7003;39936;51.058;17.220;2023-03-05T00:51:56;10;9;6
54021;PMS7003;39936;51.058;17.220;2023-03-05T00:55:56;12;9;5
54021;PMS7003;39936;51.058;17.220;2023-03-05T00:59:47;9;8;4
54021;PMS7003;39936;51.058;17.220;2023-03-05T01:03:28;16;11;6
54021;PMS7003;39936;51.058;17.220;2023-03-05T01:07:11;16;11;7
54021;PMS7003;39936;51.058;17.220;2023-03-05T01:11:04;18;13;8
54021;PMS7003;39936;51.058;17.220;2023-03-05T01:15:05;13;10;7
54021;PMS7003;39936;51.058;17.220;2023-03-05T01:18:56;12;10;6
54021;PMS7003;39936;51.058;17.220;2023-03-05T01:23:03;10;10;7
54021;PMS7003;39936;51.058;17.220;2023-03-05T01:26:54;9;8;6
54021;PMS7003;39936;51.058;17.220;2023-03-05T01:30:29;15;10;7
54021;PMS7003;39936;51.058;17.220;2023-03-05T01:34:32;12;10;6
54021;PMS7003;39936;51.058;17.220;2023-03-05T01:38:13;14;10;6
54021;PMS7003;39936;51.058;17.220;2023-03-05T01:45:38;11;9;5
54021;PMS7003;39936;51.058;17.220;2023-03-05T01:49:26;13;7;5
54021;PMS7003;39936;51.058;17.220;2023-03-05T02:00:52;4;3;3
54021;PMS7003;39936;51.058;17.220;2023-03-05T02:04:54;9;6;4
54021;PMS7003;39936;51.058;17.220;2023-03-05T02:08:18;11;8;5
54021;PMS7003;39936;51.058;17.220;2023-03-05T02:11:59;12;6;5
54021;PMS7003;39936;51.058;17.220;2023-03-05T02:15:31;10;8;5
54021;PMS7003;39936;51.058;17.220;2023-03-05T02:18:48;9;6;4
54021;PMS7003;39936;51.058;17.220;2023-03-05T02:22:13;11;8;5
54021;PMS7003;39936;51.058;17.220;2023-03-05T02:25:30;10;6;3
54021;PMS7003;39936;51.058;17.220;2023-03-05T02:28:49;6;5;3
54021;PMS7003;39936;51.058;17.220;2023-03-05T02:36:39;8;6;3
54021;PMS7003;39936;51.058;17.220;2023-03-05T02:40:15;8;6;2
54021;PMS7003;39936;51.058;17.220;2023-03-05T02:44:05;9;7;4
54021;PMS7003;39936;51.058;17.220;2023-03-05T02:47:21;7;6;3
54021;PMS7003;39936;51.058;17.220;2023-03-05T02:50:57;8;6;3
54021;PMS7003;39936;51.058;17.220;2023-03-05T02:54:48;3;2;0
54021;PMS7003;39936;51.058;17.220;2023-03-05T02:58:16;4;4;2
54021;PMS7003;39936;51.058;17.220;2023-03-05T03:01:32;5;3;3
54021;PMS7003;39936;51.058;17.220;2023-03-05T03:05:08;4;4;2
54021;PMS7003;39936;51.058;17.220;2023-03-05T03:08:52;4;3;1
54021;PMS7003;39936;51.058;17.220;2023-03-05T03:12:35;6;4;3
54021;PMS7003;39936;51.058;17.220;2023-03-05T03:19:44;8;4;3
54021;PMS7003;39936;51.058;17.220;2023-03-05T03:23:03;5;4;2
54021;PMS7003;39936;51.058;17.220;2023-03-05T03:26:31;6;6;3
54021;PMS7003;39936;51.058;17.220;2023-03-05T03:30:11;8;6;3
54021;PMS7003;39936;51.058;17.220;2023-03-05T03:33:47;4;4;2
54021;PMS7003;39936;51.058;17.220;2023-03-05T03:37:16;6;6;3
54021;PMS7003;39936;51.058;17.220;2023-03-05T03:41:15;3;3;2
54021;PMS7003;39936;51.058;17.220;2023-03-05T03:56:54;8;8;5
54021;PMS7003;39936;51.058;17.220;2023-03-05T04:00:24;6;6;2
54021;PMS7003;39936;51.058;17.220;2023-03-05T04:04:11;3;2;1
54021;PMS7003;39936;51.058;17.220;2023-03-05T04:08:15;8;4;2
54021;PMS7003;39936;51.058;17.220;2023-03-05T04:12:08;7;6;3
54021;PMS7003;39936;51.058;17.220;2023-03-05T04:15:24;7;4;2
54021;PMS7003;39936;51.058;17.220;2023-03-05T04:19:04;7;4;2
54021;PMS7003;39936;51.058;17.220;2023-03-05T04:22:26;6;3;2
54021;PMS7003;39936;51.058;17.220;2023-03-05T04:29:57;3;3;2
54021;PMS7003;39936;51.058;17.220;2023-03-05T04:37:44;4;2;1
54021;PMS7003;39936;51.058;17.220;2023-03-05T04:40:59;4;3;1
54021;PMS7003;39936;51.058;17.220;2023-03-05T04:45:01;3;2;2
54021;PMS7003;39936;51.058;17.220;2023-03-05T04:48:18;6;5;3
54021;PMS7003;39936;51.058;17.220;2023-03-05T04:52:05;7;6;3
54021;PMS7003;39936;51.058;17.220;2023-03-05T04:55:43;8;7;2
54021;PMS7003;39936;51.058;17.220;2023-03-05T04:59:56;11;6;3
54021;PMS7003;39936;51.058;17.220;2023-03-05T05:03:56;6;5;3
54021;PMS7003;39936;51.058;17.220;2023-03-05T05:07:21;7;5;3
54021;PMS7003;39936;51.058;17.220;2023-03-05T05:11:25;8;6;5
54021;PMS7003;39936;51.058;17.220;2023-03-05T05:15:03;9;6;4
54021;PMS7003;39936;51.058;17.220;2023-03-05T05:18:58;9;5;2
54021;PMS7003;39936;51.058;17.220;2023-03-05T05:22:36;5;5;2
54021;PMS7003;39936;51.058;17.220;2023-03-05T05:26:14;5;5;3
54021;PMS7003;39936;51.058;17.220;2023-03-05T05:29:29;6;5;3
54021;PMS7003;39936;51.058;17.220;2023-03-05T05:33:26;8;5;2
54021;PMS7003;39936;51.058;17.220;2023-03-05T05:37:00;5;3;2
54021;PMS7003;39936;51.058;17.220;2023-03-05T05:40:38;6;4;3
54021;PMS7003;39936;51.058;17.220;2023-03-05T05:44:27;18;14;7
54021;PMS7003;39936;51.058;17.220;2023-03-05T05:48:02;9;7;4
54021;PMS7003;39936;51.058;17.220;2023-03-05T05:52:10;19;16;7
54021;PMS7003;39936;51.058;17.220;2023-03-05T05:55:32;11;9;5
54021;PMS7003;39936;51.058;17.220;2023-03-05T05:58:49;4;3;1
54021;PMS7003;39936;51.058;17.220;2023-03-05T06:03:02;9;5;2
54021;PMS7003;39936;51.058;17.220;2023-03-05T06:07:06;5;4;2
54021;PMS7003;39936;51.058;17.220;2023-03-05T06:10:57;8;5;3
54021;PMS7003;39936;51.058;17.220;2023-03-05T06:14:56;7;5;1
54021;PMS7003;39936;51.058;17.220;2023-03-05T06:18:13;5;2;1
54021;PMS7003;39936;51.058;17.220;2023-03-05T06:22:17;6;3;2
54021;PMS7003;39936;51.058;17.220;2023-03-05T06:26:06;3;2;1
54021;PMS7003;39936;51.058;17.220;2023-03-05T06:29:26;8;7;4
54021;PMS7003;39936;51.058;17.220;2023-03-05T06:32:50;23;20;14
54021;PMS7003;39936;51.058;17.220;2023-03-05T06:36:35;23;18;13
54021;PMS7003;39936;51.058;17.220;2023-03-05T06:40:37;30;24;16
54021;PMS7003;39936;51.058;17.220;2023-03-05T06:43:53;15;13;9
54021;PMS7003;39936;51.058;17.220;2023-03-05T06:47:32;11;10;6
54021;PMS7003;39936;51.058;17.220;2023-03-05T06:51:21;14;8;6
54021;PMS7003;39936;51.058;17.220;2023-03-05T06:55:30;12;9;7
54021;PMS7003;39936;51.058;17.220;2023-03-05T06:59:41;10;9;5
54021;PMS7003;39936;51.058;17.220;2023-03-05T07:03:20;20;19;13
54021;PMS7003;39936;51.058;17.220;2023-03-05T07:06:57;18;16;11
54021;PMS7003;39936;51.058;17.220;2023-03-05T07:10:39;11;8;5
54021;PMS7003;39936;51.058;17.220;2023-03-05T07:14:06;8;7;4
54021;PMS7003;39936;51.058;17.220;2023-03-05T07:17:21;6;6;4
54021;PMS7003;39936;51.058;17.220;2023-03-05T07:20:37;12;11;8
54021;PMS7003;39936;51.058;17.220;2023-03-05T07:28:16;15;10;5
54021;PMS7003;39936;51.058;17.220;2023-03-05T07:31:57;9;8;5
54021;PMS7003;39936;51.058;17.220;2023-03-05T07:35:13;14;9;5
54021;PMS7003;39936;51.058;17.220;2023-03-05T07:38:51;16;11;6
54021;PMS7003;39936;51.058;17.220;2023-03-05T07:42:29;16;10;5
54021;PMS7003;39936;51.058;17.220;2023-03-05T07:46:32;6;6;4
54021;PMS7003;39936;51.058;17.220;2023-03-05T07:50:44;5;4;2
54021;PMS7003;39936;51.058;17.220;2023-03-05T07:54:21;6;6;4
54021;PMS7003;39936;51.058;17.220;2023-03-05T07:57:40;11;4;3
54021;PMS7003;39936;51.058;17.220;2023-03-05T08:01:16;4;4;2
54021;PMS7003;39936;51.058;17.220;2023-03-05T08:05:03;6;4;1
54021;PMS7003;39936;51.058;17.220;2023-03-05T08:08:39;5;4;1
54021;PMS7003;39936;51.058;17.220;2023-03-05T08:12:25;2;2;1
54021;PMS7003;39936;51.058;17.220;2023-03-05T08:16:29;3;2;2
54021;PMS7003;39936;51.058;17.220;2023-03-05T08:20:27;4;3;1
54021;PMS7003;39936;51.058;17.220;2023-03-05T08:24:06;3;3;1
54021;PMS7003;39936;51.058;17.220;2023-03-05T08:27:46;2;1;0
54021;PMS7003;39936;51.058;17.220;2023-03-05T08:31:37;6;3;1
54021;PMS7003;39936;51.058;17.220;2023-03-05T08:34:56;0;0;0
54021;PMS7003;39936;51.058;17.220;2023-03-05T08:38:13;3;2;0
54021;PMS7003;39936;51.058;17.220;2023-03-05T08:41:56;6;4;2
54021;PMS7003;39936;51.058;17.220;2023-03-05T08:45:38;3;2;0
54021;PMS7003;39936;51.058;17.220;2023-03-05T08:49:38;3;0;0
54021;PMS7003;39936;51.058;17.220;2023-03-05T08:52:55;9;3;2
54021;PMS7003;39936;51.058;17.220;2023-03-05T08:56:42;3;1;1
54021;PMS7003;39936;51.058;17.220;2023-03-05T09:00:42;3;2;0
54021;PMS7003;39936;51.058;17.220;2023-03-05T09:04:03;3;3;2
54021;PMS7003;39936;51.058;17.220;2023-03-05T09:07:44;4;2;1
54021;PMS7003;39936;51.058;17.220;2023-03-05T09:11:08;2;2;1
54021;PMS7003;39936;51.058;17.220;2023-03-05T09:14:52;5;5;2
54021;PMS7003;39936;51.058;17.220;2023-03-05T09:18:42;3;3;1
54021;PMS7003;39936;51.058;17.220;2023-03-05T09:22:36;4;3;2
54021;PMS7003;39936;51.058;17.220;2023-03-05T09:26:23;3;3;2
54021;PMS7003;39936;51.058;17.220;2023-03-05T09:30:11;6;5;3
54021;PMS7003;39936;51.058;17.220;2023-03-05T09:33:48;6;4;2
54021;PMS7003;39936;51.058;17.220;2023-03-05T09:37:42;7;4;1
54021;PMS7003;39936;51.058;17.220;2023-03-05T09:41:27;6;6;3
54021;PMS7003;39936;51.058;17.220;2023-03-05T09:48:51;7;2;2
54021;PMS7003;39936;51.058;17.220;2023-03-05T09:52:20;2;2;1
54021;PMS7003;39936;51.058;17.220;2023-03-05T09:56:03;5;3;1
54021;PMS7003;39936;51.058;17.220;2023-03-05T10:03:52;4;4;1
54021;PMS7003;39936;51.058;17.220;2023-03-05T10:08:15;4;4;1
54021;PMS7003;39936;51.058;17.220;2023-03-05T10:12:09;2;2;0
54021;PMS7003;39936;51.058;17.220;2023-03-05T10:23:37;3;3;1
54021;PMS7003;39936;51.058;17.220;2023-03-05T10:31:14;3;2;0
54021;PMS7003;39936;51.058;17.220;2023-03-05T10:35:00;5;4;2
54021;PMS7003;39936;51.058;17.220;2023-03-05T10:38:33;4;3;2
54021;PMS7003;39936;51.058;17.220;2023-03-05T10:50:37;1;1;0
54021;PMS7003;39936;51.058;17.220;2023-03-05T10:58:46;0;0;0
54021;PMS7003;39936;51.058;17.220;2023-03-05T11:02:27;2;1;0
54021;PMS7003;39936;51.058;17.220;2023-03-05T11:05:49;2;2;1
54021;PMS7003;39936;51.058;17.220;2023-03-05T11:14:21;7;6;2
54021;PMS7003;39936;51.058;17.220;2023-03-05T11:21:26;2;2;2
54021;PMS7003;39936;51.058;17.220;2023-03-05T11:25:49;5;4;2
54021;PMS7003;39936;51.058;17.220;2023-03-05T11:29:02;4;1;0
54021;PMS7003;39936;51.058;17.220;2023-03-05T11:40:55;3;3;1
54021;PMS7003;39936;51.058;17.220;2023-03-05T11:44:16;10;6;2
54021;PMS7003;39936;51.058;17.220;2023-03-05T11:48:27;7;6;2
54021;PMS7003;39936;51.058;17.220;2023-03-05T12:02:30;8;7;3
54021;PMS7003;39936;51.058;17.220;2023-03-05T12:06:28;6;3;2
54021;PMS7003;39936;51.058;17.220;2023-03-05T12:10:13;9;7;3
54021;PMS7003;39936;51.058;17.220;2023-03-05T12:13:35;10;6;3
54021;PMS7003;39936;51.058;17.220;2023-03-05T12:24:39;12;9;5
54021;PMS7003;39936;51.058;17.220;2023-03-05T12:28:16;13;7;5
54021;PMS7003;39936;51.058;17.220;2023-03-05T12:31:47;10;6;2
54021;PMS7003;39936;51.058;17.220;2023-03-05T12:38:52;6;5;3
54021;PMS7003;39936;51.058;17.220;2023-03-05T12:49:48;7;7;4
54021;PMS7003;39936;51.058;17.220;2023-03-05T12:53:49;5;4;2
54021;PMS7003;39936;51.058;17.220;2023-03-05T12:57:44;6;3;2
54021;PMS7003;39936;51.058;17.220;2023-03-05T13:01:54;6;5;3
54021;PMS7003;39936;51.058;17.220;2023-03-05T13:05:59;6;6;4
54021;PMS7003;39936;51.058;17.220;2023-03-05T13:09:54;7;2;1
54021;PMS7003;39936;51.058;17.220;2023-03-05T13:17:34;3;1;0
54021;PMS7003;39936;51.058;17.220;2023-03-05T13:21:55;4;4;3
54021;PMS7003;39936;51.058;17.220;2023-03-05T13:25:34;4;2;1
54021;PMS7003;39936;51.058;17.220;2023-03-05T13:29:24;3;2;1
54021;PMS7003;39936;51.058;17.220;2023-03-05T13:33:03;5;2;1
54021;PMS7003;39936;51.058;17.220;2023-03-05T13:36:55;3;2;0
54021;PMS7003;39936;51.058;17.220;2023-03-05T13:40:35;7;3;0
54021;PMS7003;39936;51.058;17.220;2023-03-05T13:43:58;10;7;4
54021;PMS7003;39936;51.058;17.220;2023-03-05T13:47:21;9;3;1
54021;PMS7003;39936;51.058;17.220;2023-03-05T13:50:42;12;7;3
54021;PMS7003;39936;51.058;17.220;2023-03-05T13:54:54;1;0;0
54021;PMS7003;39936;51.058;17.220;2023-03-05T14:02:29;3;3;2
54021;PMS7003;39936;51.058;17.220;2023-03-05T14:06:09;3;1;0
54021;PMS7003;39936;51.058;17.220;2023-03-05T14:09:52;4;4;1
54021;PMS7003;39936;51.058;17.220;2023-03-05T14:13:39;4;4;2
54021;PMS7003;39936;51.058;17.220;2023-03-05T14:17:40;3;1;0
54021;PMS7003;39936;51.058;17.220;2023-03-05T14:21:09;5;3;0
54021;PMS7003;39936;51.058;17.220;2023-03-05T14:24:26;1;1;0
54021;PMS7003;39936;51.058;17.220;2023-03-05T14:27:48;5;3;2
54021;PMS7003;39936;51.058;17.220;2023-03-05T14:31:18;1;1;0
54021;PMS7003;39936;51.058;17.220;2023-03-05T14:38:41;4;2;1
54021;PMS7003;39936;51.058;17.220;2023-03-05T14:45:39;10;7;3
54021;PMS7003;39936;51.058;17.220;2023-03-05T14:49:11;4;4;1
54021;PMS7003;39936;51.058;17.220;2023-03-05T14:53:06;4;3;2
54021;PMS7003;39936;51.058;17.220;2023-03-05T14:57:15;5;5;2
54021;PMS7003;39936;51.058;17.220;2023-03-05T15:00:34;6;5;2
54021;PMS7003;39936;51.058;17.220;2023-03-05T15:03:52;6;3;2
54021;PMS7003;39936;51.058;17.220;2023-03-05T15:11:21;7;6;3
54021;PMS7003;39936;51.058;17.220;2023-03-05T15:14:40;10;9;7
54021;PMS7003;39936;51.058;17.220;2023-03-05T15:18:24;9;7;4
54021;PMS7003;39936;51.058;17.220;2023-03-05T15:22:28;10;7;4
54021;PMS7003;39936;51.058;17.220;2023-03-05T15:26:15;8;6;3
54021;PMS7003;39936;51.058;17.220;2023-03-05T15:29:34;10;7;4
54021;PMS7003;39936;51.058;17.220;2023-03-05T15:33:17;10;7;3
54021;PMS7003;39936;51.058;17.220;2023-03-05T15:36:56;12;11;7
54021;PMS7003;39936;51.058;17.220;2023-03-05T15:40:43;24;18;9
54021;PMS7003;39936;51.058;17.220;2023-03-05T15:44:00;12;9;7
54021;PMS7003;39936;51.058;17.220;2023-03-05T15:51:43;6;5;4
54021;PMS7003;39936;51.058;17.220;2023-03-05T15:55:18;7;5;4
54021;PMS7003;39936;51.058;17.220;2023-03-05T15:58:40;6;5;4
54021;PMS7003;39936;51.058;17.220;2023-03-05T16:01:57;7;6;3
54021;PMS7003;39936;51.058;17.220;2023-03-05T16:05:15;5;3;1
54021;PMS7003;39936;51.058;17.220;2023-03-05T16:12:27;6;6;3
54021;PMS7003;39936;51.058;17.220;2023-03-05T16:15:56;10;8;5
54021;PMS7003;39936;51.058;17.220;2023-03-05T16:20:35;6;4;3
54021;PMS7003;39936;51.058;17.220;2023-03-05T16:24:24;7;5;3
54021;PMS7003;39936;51.058;17.220;2023-03-05T16:28:18;11;8;4
54021;PMS7003;39936;51.058;17.220;2023-03-05T16:31:31;12;8;5
54021;PMS7003;39936;51.058;17.220;2023-03-05T16:35:10;16;10;6
54021;PMS7003;39936;51.058;17.220;2023-03-05T16:38:27;7;7;4
54021;PMS7003;39936;51.058;17.220;2023-03-05T16:41:48;6;5;3
54021;PMS7003;39936;51.058;17.220;2023-03-05T16:45:07;8;6;4
54021;PMS7003;39936;51.058;17.220;2023-03-05T16:48:26;15;12;8
54021;PMS7003;39936;51.058;17.220;2023-03-05T16:51:47;9;9;6
54021;PMS7003;39936;51.058;17.220;2023-03-05T16:59:16;9;8;5
54021;PMS7003;39936;51.058;17.220;2023-03-05T17:02:44;8;5;4
54021;PMS7003;39936;51.058;17.220;2023-03-05T17:06:33;10;9;6
54021;PMS7003;39936;51.058;17.220;2023-03-05T17:10:24;9;8;4
54021;PMS7003;39936;51.058;17.220;2023-03-05T17:13:45;18;14;8
54021;PMS7003;39936;51.058;17.220;2023-03-05T17:17:00;16;13;9
54021;PMS7003;39936;51.058;17.220;2023-03-05T17:20:38;12;10;6
54021;PMS7003;39936;51.058;17.220;2023-03-05T17:24:16;12;11;7
54021;PMS7003;39936;51.058;17.220;2023-03-05T17:27:46;5;5;4
54021;PMS7003;39936;51.058;17.220;2023-03-05T17:31:21;11;8;6
54021;PMS7003;39936;51.058;17.220;2023-03-05T17:34:37;11;10;6
54021;PMS7003;39936;51.058;17.220;2023-03-05T17:37:54;14;12;9
54021;PMS7003;39936;51.058;17.220;2023-03-05T17:41:12;14;12;7
54021;PMS7003;39936;51.058;17.220;2023-03-05T17:44:51;25;21;14
54021;PMS7003;39936;51.058;17.220;2023-03-05T17:48:47;30;25;16
54021;PMS7003;39936;51.058;17.220;2023-03-05T17:52:24;28;24;15
54021;PMS7003;39936;51.058;17.220;2023-03-05T17:55:45;25;18;11
54021;PMS7003;39936;51.058;17.220;2023-03-05T17:59:02;23;18;9
54021;PMS7003;39936;51.058;17.220;2023-03-05T18:02:19;14;12;7
54021;PMS7003;39936;51.058;17.220;2023-03-05T18:05:43;14;10;5
54021;PMS7003;39936;51.058;17.220;2023-03-05T18:09:02;16;15;8
54021;PMS7003;39936;51.058;17.220;2023-03-05T18:12:19;12;11;7
54021;PMS7003;39936;51.058;17.220;2023-03-05T18:15:41;9;9;6
54021;PMS7003;39936;51.058;17.220;2023-03-05T18:19:00;12;12;8
54021;PMS7003;39936;51.058;17.220;2023-03-05T18:22:22;16;12;7
54021;PMS7003;39936;51.058;17.220;2023-03-05T18:25:43;14;10;7
54021;PMS7003;39936;51.058;17.220;2023-03-05T18:29:49;19;14;8
54021;PMS7003;39936;51.058;17.220;2023-03-05T18:33:17;21;17;11
54021;PMS7003;39936;51.058;17.220;2023-03-05T18:38:59;51;39;28
54021;PMS7003;39936;51.058;17.220;2023-03-05T18:44:30;47;36;23
54021;PMS7003;39936;51.058;17.220;2023-03-05T18:48:38;43;36;23
54021;PMS7003;39936;51.058;17.220;2023-03-05T18:52:30;36;30;20
54021;PMS7003;39936;51.058;17.220;2023-03-05T18:56:39;33;28;19
54021;PMS7003;39936;51.058;17.220;2023-03-05T19:01:24;32;25;17
54021;PMS7003;39936;51.058;17.220;2023-03-05T19:05:18;32;28;19
54021;PMS7003;39936;51.058;17.220;2023-03-05T19:09:06;29;24;16
54021;PMS7003;39936;51.058;17.220;2023-03-05T19:12:36;23;19;13
54021;PMS7003;39936;51.058;17.220;2023-03-05T19:17:16;29;20;14
54021;PMS7003;39936;51.058;17.220;2023-03-05T19:21:03;22;17;12
54021;PMS7003;39936;51.058;17.220;2023-03-05T19:24:40;23;20;14
54021;PMS7003;39936;51.058;17.220;2023-03-05T19:27:56;19;16;10
54021;PMS7003;39936;51.058;17.220;2023-03-05T19:31:24;25;20;14
54021;PMS7003;39936;51.058;17.220;2023-03-05T19:35:04;19;18;12
54021;PMS7003;39936;51.058;17.220;2023-03-05T19:38:58;24;20;13
54021;PMS7003;39936;51.058;17.220;2023-03-05T19:42:17;38;26;17
54021;PMS7003;39936;51.058;17.220;2023-03-05T19:45:46;29;25;15
54021;PMS7003;39936;51.058;17.220;2023-03-05T19:49:06;22;18;12
54021;PMS7003;39936;51.058;17.220;2023-03-05T19:52:47;27;20;15
54021;PMS7003;39936;51.058;17.220;2023-03-05T19:56:07;28;23;16
54021;PMS7003;39936;51.058;17.220;2023-03-05T20:00:01;29;25;16
54021;PMS7003;39936;51.058;17.220;2023-03-05T20:03:37;26;21;14
54021;PMS7003;39936;51.058;17.220;2023-03-05T20:07:11;24;20;13
54021;PMS7003;39936;51.058;17.220;2023-03-05T20:10:50;26;23;13
54021;PMS7003;39936;51.058;17.220;2023-03-05T20:14:42;35;29;17
54021;PMS7003;39936;51.058;17.220;2023-03-05T20:17:56;29;24;15
54021;PMS7003;39936;51.058;17.220;2023-03-05T20:25:23;23;23;16
54021;PMS7003;39936;51.058;17.220;2023-03-05T20:29:08;23;20;13
54021;PMS7003;39936;51.058;17.220;2023-03-05T20:32:23;22;19;11
54021;PMS7003;39936;51.058;17.220;2023-03-05T20:36:02;17;15;10
54021;PMS7003;39936;51.058;17.220;2023-03-05T20:39:22;21;17;11
54021;PMS7003;39936;51.058;17.220;2023-03-05T20:42:42;25;18;11
54021;PMS7003;39936;51.058;17.220;2023-03-05T20:45:59;21;16;10
54021;PMS7003;39936;51.058;17.220;2023-03-05T20:49:59;15;12;9
54021;PMS7003;39936;51.058;17.220;2023-03-05T20:54:11;17;15;8
54021;PMS7003;39936;51.058;17.220;2023-03-05T20:57:40;21;15;8
54021;PMS7003;39936;51.058;17.220;2023-03-05T21:01:48;19;16;10
54021;PMS7003;39936;51.058;17.220;2023-03-05T21:05:31;14;11;8
54021;PMS7003;39936;51.058;17.220;2023-03-05T21:09:14;19;14;8
54021;PMS7003;39936;51.058;17.220;2023-03-05T21:12:32;15;12;8
54021;PMS7003;39936;51.058;17.220;2023-03-05T21:19:39;12;12;8
54021;PMS7003;39936;51.058;17.220;2023-03-05T21:23:53;18;14;9
54021;PMS7003;39936;51.058;17.220;2023-03-05T21:27:32;16;14;7
54021;PMS7003;39936;51.058;17.220;2023-03-05T21:31:19;17;13;8
54021;PMS7003;39936;51.058;17.220;2023-03-05T21:34:49;18;9;5
54021;PMS7003;39936;51.058;17.220;2023-03-05T21:38:47;14;14;8
54021;PMS7003;39936;51.058;17.220;2023-03-05T21:42:07;17;14;7
54021;PMS7003;39936;51.058;17.220;2023-03-05T21:46:16;20;13;8
54021;PMS7003;39936;51.058;17.220;2023-03-05T21:50:07;10;9;5
54021;PMS7003;39936;51.058;17.220;2023-03-05T21:53:53;16;12;6
54021;PMS7003;39936;51.058;17.220;2023-03-05T21:57:09;15;11;7
54021;PMS7003;39936;51.058;17.220;2023-03-05T22:00:28;11;9;6
54021;PMS7003;39936;51.058;17.220;2023-03-05T22:03:48;15;10;7
54021;PMS7003;39936;51.058;17.220;2023-03-05T22:07:43;11;11;6
54021;PMS7003;39936;51.058;17.220;2023-03-05T22:11:35;12;10;7
54021;PMS7003;39936;51.058;17.220;2023-03-05T22:15:29;16;8;6
54021;PMS7003;39936;51.058;17.220;2023-03-05T22:19:09;13;12;8
54021;PMS7003;39936;51.058;17.220;2023-03-05T22:22:42;17;16;9
54021;PMS7003;39936;51.058;17.220;2023-03-05T22:26:51;17;17;11
54021;PMS7003;39936;51.058;17.220;2023-03-05T22:30:47;18;15;10
54021;PMS7003;39936;51.058;17.220;2023-03-05T22:34:08;20;17;10
54021;PMS7003;39936;51.058;17.220;2023-03-05T22:37:47;11;10;7
54021;PMS7003;39936;51.058;17.220;2023-03-05T22:41:26;21;16;11
54021;PMS7003;39936;51.058;17.220;2023-03-05T22:45:24;15;14;9
54021;PMS7003;39936;51.058;17.220;2023-03-05T22:48:44;14;11;7
54021;PMS7003;39936;51.058;17.220;2023-03-05T22:52:15;14;11;8
54021;PMS7003;39936;51.058;17.220;2023-03-05T22:55:44;17;13;8
54021;PMS7003;39936;51.058;17.220;2023-03-05T22:59:32;17;12;8
54021;PMS7003;39936;51.058;17.220;2023-03-05T23:03:52;13;9;7
54021;PMS7003;39936;51.058;17.220;2023-03-05T23:07:49;17;11;6
54021;PMS7003;39936;51.058;17.220;2023-03-05T23:11:26;17;11;8
54021;PMS7003;39936;51.058;17.220;2023-03-05T23:15:13;16;13;8
54021;PMS7003;39936;51.058;17.220;2023-03-05T23:19:09;16;15;8
54021;PMS7003;39936;51.058;17.220;2023-03-05T23:22:26;16;13;9
54021;PMS7003;39936;51.058;17.220;2023-03-05T23:26:15;19;14;9
54021;PMS7003;39936;51.058;17.220;2023-03-05T23:29:57;16;13;7
54021;PMS7003;39936;51.058;17.220;2023-03-05T23:41:30;13;12;7
54021;PMS7003;39936;51.058;17.220;2023-03-05T23:45:13;14;12;7
54021;PMS7003;39936;51.058;17.220;2023-03-05T23:49:02;12;9;5
54021;PMS7003;39936;51.058;17.220;2023-03-05T23:52:21;15;11;7
54021;PMS7003;39936;51.058;17.220;2023-03-05T23:56:01;11;9;5
54021;PMS7003;39936;51.058;17.220;2023-03-05T23:59:26;10;9;6
